Time;durP1;ratioP1;P1;durP2;ratioP2;P2;SDS_P1;SDS_P2;PMS_P1;PMS_P2;Temp;Humidity;BMP_temperature;BMP_pressure;BME280_temperature;BME280_humidity;BME280_pressure;Samples;Min_cycle;Max_cycle;Signal;HPM_P1;HPM_P2
2021/01/07 00:04:59;;;;;;;91.35;47.62;;;;;;;4.15;71.06;98293.98;251940;1133;114752;-72
2021/01/07 00:10:10;;;;;;;97.10;51.17;;;;;;;4.17;71.39;98280.72;251621;1133;115458;-72
2021/01/07 00:15:24;;;;;;;89.60;49.20;;;;;;;4.17;71.72;98289.47;246797;1134;114902;-74
2021/01/07 00:20:32;;;;;;;95.43;51.50;;;;;;;4.20;70.84;98299.02;251964;1133;114707;-71
2021/01/07 00:25:44;;;;;;;90.50;49.97;;;;;;;4.22;71.24;98302.44;251801;1132;115040;-72
2021/01/07 00:30:51;;;;;;;86.67;46.13;;;;;;;4.17;71.60;98309.69;249381;1134;115499;-72
2021/01/07 00:35:56;;;;;;;83.20;46.27;;;;;;;4.09;70.65;98302.16;250066;1132;115892;-72
2021/01/07 00:41:00;;;;;;;91.07;47.63;;;;;;;4.07;70.70;98317.16;250962;1134;114669;-72
2021/01/07 00:46:02;;;;;;;90.47;47.07;;;;;;;4.07;71.33;98313.69;252008;1132;114890;-73
2021/01/07 00:51:06;;;;;;;84.60;45.10;;;;;;;4.10;70.64;98313.55;251802;1132;114818;-73
2021/01/07 00:56:08;;;;;;;89.07;48.95;;;;;;;4.17;70.68;98312.32;251769;1134;115247;-72
2021/01/07 01:01:13;;;;;;;99.00;49.37;;;;;;;4.21;70.81;98308.61;251737;1132;114765;-72
2021/01/07 01:06:16;;;;;;;91.53;49.98;;;;;;;4.24;71.86;98316.36;251734;1132;115024;-72
2021/01/07 01:11:18;;;;;;;92.80;47.97;;;;;;;4.24;71.69;98322.48;251652;1132;114871;-72
2021/01/07 01:16:26;;;;;;;89.20;48.47;;;;;;;4.18;70.51;98316.69;247435;1132;114933;-73
2021/01/07 01:21:28;;;;;;;93.78;50.38;;;;;;;4.11;70.48;98309.97;252050;1132;114683;-73
2021/01/07 01:26:31;;;;;;;91.40;49.93;;;;;;;4.06;71.26;98315.47;251680;1133;114669;-73
2021/01/07 01:31:39;;;;;;;102.17;53.13;;;;;;;4.05;71.87;98313.77;251716;1133;114647;-73
2021/01/07 01:36:42;;;;;;;93.93;49.67;;;;;;;4.14;71.13;98301.94;251933;1132;114793;-73
2021/01/07 01:41:47;;;;;;;99.10;52.60;;;;;;;4.21;70.94;98300.70;251591;1133;115023;-73
2021/01/07 01:46:49;;;;;;;93.75;51.35;;;;;;;4.23;71.04;98293.60;251698;1134;114823;-73
2021/01/07 01:51:51;;;;;;;92.33;51.20;;;;;;;4.23;71.28;98288.33;251623;1132;114610;-73
2021/01/07 01:56:57;;;;;;;91.70;50.53;;;;;;;4.22;71.69;98291.91;251651;1135;114496;-72
2021/01/07 02:02:20;;;;;;;86.80;47.87;;;;;;;4.20;71.61;98289.33;251779;1136;114772;-73
2021/01/07 02:07:24;;;;;;;83.00;44.57;;;;;;;4.13;71.69;98298.45;251855;1134;114768;-72
2021/01/07 02:12:27;;;;;;;92.37;48.87;;;;;;;4.12;71.24;98294.13;251739;1136;115432;-72
2021/01/07 02:17:29;;;;;;;88.27;49.67;;;;;;;4.15;71.51;98299.25;251742;1132;115987;-72
2021/01/07 02:22:35;;;;;;;91.53;49.93;;;;;;;4.23;71.55;98283.06;251304;1134;114874;-73
2021/01/07 02:27:42;;;;;;;92.60;46.17;;;;;;;4.24;71.28;98284.77;248868;1132;115794;-73
2021/01/07 02:32:45;;;;;;;83.10;46.80;;;;;;;4.25;70.96;98281.22;251722;1132;114840;-73
2021/01/07 02:37:47;;;;;;;81.45;45.85;;;;;;;4.22;70.81;98281.37;251770;1134;115793;-73
2021/01/07 02:42:50;;;;;;;81.73;45.87;;;;;;;4.19;71.27;98290.27;251737;1134;115332;-73
2021/01/07 02:47:52;;;;;;;79.85;44.15;;;;;;;4.18;71.33;98292.98;252100;1132;114983;-73
2021/01/07 02:52:55;;;;;;;88.20;46.80;;;;;;;4.16;71.68;98294.83;251887;1133;114920;-72
2021/01/07 02:57:57;;;;;;;79.10;44.37;;;;;;;4.21;71.24;98298.08;251683;1134;114736;-73
2021/01/07 03:02:59;;;;;;;77.08;42.03;;;;;;;4.27;71.26;98295.15;251229;1132;114849;-74
2021/01/07 03:08:02;;;;;;;69.73;39.07;;;;;;;4.30;71.69;98292.38;251913;1132;115028;-74
2021/01/07 03:13:04;;;;;;;74.03;41.28;;;;;;;4.30;71.51;98292.38;251850;1135;114902;-74
2021/01/07 03:18:06;;;;;;;69.82;38.98;;;;;;;4.24;71.60;98290.88;252038;1132;116494;-73
2021/01/07 03:23:09;;;;;;;62.40;36.45;;;;;;;4.17;70.69;98291.25;251707;1134;114772;-74
2021/01/07 03:28:11;;;;;;;66.37;36.75;;;;;;;4.14;71.67;98292.25;251661;1134;114635;-74
2021/01/07 03:33:13;;;;;;;69.60;38.23;;;;;;;4.13;71.16;98284.44;252018;1132;114816;-74
2021/01/07 03:38:15;;;;;;;67.30;36.27;;;;;;;4.15;71.73;98288.71;251657;1134;117109;-74
2021/01/07 03:43:18;;;;;;;62.70;36.10;;;;;;;4.20;70.92;98293.75;251984;1132;117335;-73
2021/01/07 03:48:20;;;;;;;61.03;34.90;;;;;;;4.24;71.18;98295.30;251974;1134;114850;-73
2021/01/07 03:53:23;;;;;;;58.60;32.60;;;;;;;4.24;71.23;98296.14;251885;1134;115199;-74
2021/01/07 03:58:25;;;;;;;59.27;35.03;;;;;;;4.24;71.42;98301.41;251897;1133;114788;-74
2021/01/07 04:03:29;;;;;;;58.07;33.17;;;;;;;4.20;71.76;98299.86;252131;1133;114791;-72
2021/01/07 04:08:32;;;;;;;53.93;32.50;;;;;;;4.19;70.66;98303.43;251790;1133;115486;-73
2021/01/07 04:13:34;;;;;;;67.07;36.67;;;;;;;4.17;70.86;98302.64;252041;1132;114864;-74
2021/01/07 04:18:36;;;;;;;64.80;35.38;;;;;;;4.19;71.60;98292.89;251972;1132;114728;-73
2021/01/07 04:23:38;;;;;;;61.03;35.13;;;;;;;4.24;71.27;98295.30;251728;1132;114788;-73
2021/01/07 04:28:42;;;;;;;59.97;36.17;;;;;;;4.29;71.01;98300.36;251781;1133;115212;-75
2021/01/07 04:33:47;;;;;;;57.07;33.13;;;;;;;4.31;71.78;98299.33;251890;1134;114852;-74
2021/01/07 04:38:50;;;;;;;51.63;30.13;;;;;;;4.31;70.72;98298.48;251718;1134;114866;-74
2021/01/07 04:43:57;;;;;;;46.63;28.50;;;;;;;4.27;71.53;98303.91;251715;1134;116237;-74
2021/01/07 04:49:00;;;;;;;49.30;28.80;;;;;;;4.27;71.51;98301.27;252126;1136;115129;-75
2021/01/07 04:54:03;;;;;;;55.43;31.07;;;;;;;4.23;70.78;98298.87;251621;1132;115087;-75
2021/01/07 04:59:06;;;;;;;51.23;28.77;;;;;;;4.23;70.77;98302.34;251832;1133;114761;-74
2021/01/07 05:04:14;;;;;;;55.20;31.90;;;;;;;4.25;70.75;98302.30;251805;1134;115138;-74
2021/01/07 05:09:16;;;;;;;52.80;31.15;;;;;;;4.25;71.20;98294.39;251902;1132;115685;-74
2021/01/07 05:14:18;;;;;;;49.60;28.60;;;;;;;4.23;70.31;98302.34;251844;1134;115316;-74
2021/01/07 05:19:21;;;;;;;49.20;29.40;;;;;;;4.20;70.73;98291.11;248521;1132;115026;-72
2021/01/07 05:24:23;;;;;;;46.07;26.83;;;;;;;4.17;71.11;98286.84;251933;1133;114614;-73
2021/01/07 05:29:29;;;;;;;43.10;25.97;;;;;;;4.14;70.37;98286.98;252028;1132;114854;-73
2021/01/07 05:34:44;;;;;;;45.67;26.48;;;;;;;4.10;70.30;98289.84;252025;1134;115789;-73
2021/01/07 05:39:48;;;;;;;48.38;25.37;;;;;;;4.14;71.15;98288.77;251792;1133;115674;-72
2021/01/07 05:44:54;;;;;;;44.63;26.60;;;;;;;4.14;70.58;98296.66;251905;1133;114829;-73
2021/01/07 05:49:57;;;;;;;44.23;24.47;;;;;;;4.18;70.25;98306.16;251981;1135;114654;-73
2021/01/07 05:55:00;;;;;;;41.60;24.97;;;;;;;4.19;70.74;98306.06;251737;1132;114753;-72
2021/01/07 06:00:15;;;;;;;39.78;23.67;;;;;;;4.16;71.02;98307.98;251916;1134;114808;-71
2021/01/07 06:05:18;;;;;;;39.07;22.70;;;;;;;4.07;70.79;98303.16;251813;1132;115913;-72
2021/01/07 06:10:21;;;;;;;40.77;24.30;;;;;;;4.06;70.75;98304.94;251984;1134;114803;-73
2021/01/07 06:15:24;;;;;;;45.77;25.73;;;;;;;3.99;69.91;98301.74;251722;1135;115594;-72
2021/01/07 06:20:32;;;;;;;44.63;24.57;;;;;;;4.02;70.18;98308.65;251977;1134;114855;-73
2021/01/07 06:25:35;;;;;;;45.12;25.80;;;;;;;4.05;71.15;98312.92;251834;1132;114705;-74
2021/01/07 06:30:40;;;;;;;43.87;25.50;;;;;;;4.10;70.66;98321.44;251458;1134;115601;-72
2021/01/07 06:35:44;;;;;;;49.73;28.23;;;;;;;4.03;70.90;98326.14;252057;1132;114955;-72
2021/01/07 06:40:47;;;;;;;44.37;25.43;;;;;;;4.01;71.41;98326.23;251989;1134;114594;-72
2021/01/07 06:45:52;;;;;;;52.58;29.63;;;;;;;4.02;70.56;98333.19;251822;1135;114775;-72
2021/01/07 06:50:55;;;;;;;56.25;32.33;;;;;;;3.96;70.44;98336.10;251703;1132;114923;-72
2021/01/07 06:56:15;;;;;;;67.73;35.27;;;;;;;3.97;70.62;98347.48;251971;1132;115076;-73
2021/01/07 07:01:19;;;;;;;66.55;35.30;;;;;;;3.96;71.11;98356.31;251840;1132;114699;-73
2021/01/07 07:06:26;;;;;;;62.63;32.30;;;;;;;4.00;71.31;98371.88;251634;1133;114700;-75
2021/01/07 07:11:30;;;;;;;62.48;33.33;;;;;;;4.06;70.21;98372.54;251731;1132;115051;-75
2021/01/07 07:16:35;;;;;;;64.40;35.85;;;;;;;4.06;70.80;98377.80;251758;1133;114985;-75
2021/01/07 07:21:52;;;;;;;61.65;33.78;;;;;;;4.08;70.17;98383.87;251765;1135;114990;-76
2021/01/07 07:27:00;;;;;;;61.02;33.60;;;;;;;4.09;71.26;98388.20;251891;1132;114782;-76
2021/01/07 07:32:24;;;;;;;53.67;31.60;;;;;;;4.11;70.43;98396.86;251941;1132;114727;-76
2021/01/07 07:37:27;;;;;;;54.42;31.48;;;;;;;4.08;69.96;98402.30;251848;1133;114591;-76
2021/01/07 07:42:30;;;;;;;59.23;33.63;;;;;;;4.07;70.99;98406.69;251862;1132;114864;-76
2021/01/07 07:47:34;;;;;;;59.20;30.62;;;;;;;4.13;70.25;98421.36;251909;1133;114607;-76
2021/01/07 07:52:36;;;;;;;52.37;29.47;;;;;;;4.08;70.71;98429.48;251291;1132;116018;-76
2021/01/07 07:57:48;;;;;;;50.80;30.13;;;;;;;4.03;70.70;98424.40;251991;1132;115054;-76
2021/01/07 08:02:51;;;;;;;51.77;28.67;;;;;;;4.06;69.92;98428.68;251817;1132;114986;-76
2021/01/07 08:07:54;;;;;;;52.98;28.92;;;;;;;4.02;70.53;98432.38;251621;1133;114871;-76
2021/01/07 08:12:59;;;;;;;47.57;26.73;;;;;;;4.05;70.69;98437.51;251796;1135;114746;-76
2021/01/07 08:18:18;;;;;;;55.65;30.45;;;;;;;4.08;70.58;98439.16;251662;1132;114757;-76
2021/01/07 08:23:23;;;;;;;46.77;26.80;;;;;;;4.17;69.98;98451.88;251719;1135;114852;-76
2021/01/07 08:28:42;;;;;;;39.60;21.77;;;;;;;4.23;70.43;98455.09;251608;1134;114865;-76
2021/01/07 08:33:46;;;;;;;41.58;23.70;;;;;;;4.19;69.73;98458.80;251366;1132;114878;-76
2021/01/07 08:38:53;;;;;;;35.80;21.47;;;;;;;4.19;69.82;98453.53;251583;1134;114877;-76
2021/01/07 08:43:57;;;;;;;34.40;21.07;;;;;;;4.15;69.87;98459.02;251807;1132;114826;-75
2021/01/07 08:49:02;;;;;;;35.20;21.25;;;;;;;4.11;69.95;98467.95;251855;1133;114827;-75
2021/01/07 08:54:12;;;;;;;33.50;20.45;;;;;;;4.10;69.52;98471.52;251442;1135;115111;-75
2021/01/07 08:59:27;;;;;;;29.05;17.23;;;;;;;4.07;69.25;98476.92;251729;1133;114610;-73
2021/01/07 09:04:40;;;;;;;28.07;15.63;;;;;;;4.09;69.48;98469.81;251810;1134;115105;-76
2021/01/07 09:09:51;;;;;;;25.30;15.63;;;;;;;3.97;68.94;98477.35;251879;1134;114620;-75
2021/01/07 09:14:55;;;;;;;28.70;17.17;;;;;;;3.96;69.84;98485.30;251513;1133;114985;-76
2021/01/07 09:20:05;;;;;;;27.20;16.23;;;;;;;3.99;69.78;98483.38;251803;1134;114730;-75
2021/01/07 09:25:15;;;;;;;27.73;16.60;;;;;;;4.07;69.56;98482.19;250875;1135;115376;-75
2021/01/07 09:30:18;;;;;;;24.57;16.03;;;;;;;4.07;70.21;98482.19;251844;1134;114821;-75
2021/01/07 09:35:21;;;;;;;23.37;14.60;;;;;;;4.00;69.69;98490.34;251824;1132;114744;-75
2021/01/07 09:40:34;;;;;;;17.20;11.80;;;;;;;3.96;69.84;98480.88;251966;1135;114745;-75
2021/01/07 09:45:36;;;;;;;17.48;10.85;;;;;;;4.01;69.65;98483.33;251872;1134;114875;-75
2021/01/07 09:50:39;;;;;;;13.03;8.48;;;;;;;4.08;69.87;98490.03;251874;1132;114814;-75
2021/01/07 09:55:41;;;;;;;14.85;9.53;;;;;;;4.14;69.78;98480.98;251786;1132;114692;-75
2021/01/07 10:00:44;;;;;;;13.88;8.78;;;;;;;4.13;69.30;98488.03;251888;1133;114275;-75
2021/01/07 10:05:46;;;;;;;14.45;8.38;;;;;;;4.12;68.72;98488.12;251939;1132;114571;-75
2021/01/07 10:10:49;;;;;;;15.70;9.43;;;;;;;4.13;69.10;98488.03;251643;1132;114955;-76
2021/01/07 10:15:51;;;;;;;17.48;10.08;;;;;;;4.05;69.08;98490.16;251842;1132;114877;-76
2021/01/07 10:21:00;;;;;;;14.73;9.03;;;;;;;3.92;68.19;98489.00;250702;1133;115535;-75
2021/01/07 10:26:03;;;;;;;16.03;10.37;;;;;;;3.89;68.80;98484.71;250660;1132;114555;-76
2021/01/07 10:31:06;;;;;;;24.23;12.17;;;;;;;3.92;68.97;98479.31;249915;1133;115029;-74
2021/01/07 10:36:09;;;;;;;17.87;11.93;;;;;;;3.98;68.82;98488.73;251722;1134;114898;-75
2021/01/07 10:41:12;;;;;;;16.25;10.35;;;;;;;4.08;68.93;98489.19;251718;1133;114648;-73
2021/01/07 10:46:15;;;;;;;16.73;10.97;;;;;;;4.22;68.69;98495.53;251684;1135;114695;-74
2021/01/07 10:51:18;;;;;;;16.13;9.47;;;;;;;4.21;68.69;98495.58;251743;1133;114919;-74
2021/01/07 10:56:28;;;;;;;15.63;10.10;;;;;;;4.16;68.96;98492.31;251707;1132;114638;-74
2021/01/07 11:01:37;;;;;;;19.62;12.30;;;;;;;4.00;68.16;98487.72;251648;1134;114695;-74
2021/01/07 11:06:48;;;;;;;20.68;12.10;;;;;;;3.93;68.42;98486.28;250854;1135;116205;-74
2021/01/07 11:11:55;;;;;;;29.43;15.80;;;;;;;3.84;67.91;98496.35;251703;1133;114809;-75
2021/01/07 11:17:06;;;;;;;32.70;18.83;;;;;;;3.89;68.67;98489.98;250607;1134;114793;-74
2021/01/07 11:22:17;;;;;;;32.63;19.40;;;;;;;3.97;68.79;98485.25;251682;1134;114682;-74
2021/01/07 11:27:22;;;;;;;24.37;15.37;;;;;;;4.03;67.95;98476.20;251756;1133;114760;-74
2021/01/07 11:32:25;;;;;;;26.82;14.63;;;;;;;3.99;68.41;98480.75;251743;1133;114770;-73
2021/01/07 11:37:36;;;;;;;21.07;12.53;;;;;;;4.02;68.84;98474.50;251845;1134;115038;-74
2021/01/07 11:43:05;;;;;;;19.03;11.43;;;;;;;3.97;68.40;98485.25;250082;1132;115157;-74
2021/01/07 11:48:08;;;;;;;19.23;10.57;;;;;;;3.81;67.61;98483.36;251022;1132;114837;-75
2021/01/07 11:53:11;;;;;;;17.70;10.87;;;;;;;3.79;67.34;98491.30;251588;1133;114857;-75
2021/01/07 11:58:22;;;;;;;19.42;11.45;;;;;;;3.70;67.48;98495.20;251639;1133;114649;-75
2021/01/07 12:03:32;;;;;;;19.90;11.53;;;;;;;3.76;67.84;98494.91;251760;1134;114940;-75
2021/01/07 12:08:45;;;;;;;18.40;11.50;;;;;;;3.84;68.11;98491.09;251587;1133;114716;-75
2021/01/07 12:14:12;;;;;;;17.00;11.10;;;;;;;3.97;68.57;98489.63;251801;1133;115106;-75
2021/01/07 12:19:15;;;;;;;;;;;;;;;4.04;67.73;98496.33;249053;1134;114810;-75
2021/01/07 12:24:19;;;;;;;18.32;11.03;;;;;;;4.01;67.23;98496.50;251940;1132;103371;-75
2021/01/07 12:29:23;;;;;;;15.40;10.32;;;;;;;4.01;68.09;98499.13;251896;1133;114895;-75
2021/01/07 12:35:17;;;;;;;16.23;8.97;;;;;;;3.91;66.61;98503.94;251826;1134;114754;-75
2021/01/07 12:40:24;;;;;;;14.40;9.20;;;;;;;3.79;66.85;98502.67;251353;1133;114508;-76
2021/01/07 12:45:27;;;;;;;13.60;9.20;;;;;;;3.80;67.52;98511.42;250517;1133;114998;-75
2021/01/07 12:50:30;;;;;;;13.50;8.38;;;;;;;3.75;67.09;98514.27;251447;1134;114518;-75
2021/01/07 12:55:33;;;;;;;14.57;9.70;;;;;;;3.77;67.54;98517.70;250446;1133;115599;-73
2021/01/07 13:00:44;;;;;;;15.87;9.73;;;;;;;3.79;67.04;98521.10;251964;1132;114832;-74
2021/01/07 13:05:52;;;;;;;16.17;8.68;;;;;;;3.75;66.57;98522.16;251592;1130;115002;-73
2021/01/07 13:10:56;;;;;;;17.83;10.93;;;;;;;3.61;67.08;98529.79;251866;1134;114266;-76
2021/01/07 13:16:00;;;;;;;12.60;9.00;;;;;;;3.59;67.20;98526.35;251766;1133;114863;-76
2021/01/07 13:21:03;;;;;;;19.23;10.60;;;;;;;3.63;66.37;98527.08;251921;1132;114520;-75
2021/01/07 13:26:08;;;;;;;18.07;11.30;;;;;;;3.74;66.92;98540.66;251463;1132;114309;-75
2021/01/07 13:31:11;;;;;;;30.07;17.90;;;;;;;3.71;66.43;98548.68;251915;1134;115044;-75
2021/01/07 13:36:15;;;;;;;27.13;17.87;;;;;;;3.67;66.39;98541.81;251865;1134;114985;-75
2021/01/07 13:41:18;;;;;;;29.30;16.50;;;;;;;3.61;67.30;98540.31;252029;1134;115020;-75
2021/01/07 13:46:24;;;;;;;28.05;16.75;;;;;;;3.53;66.92;98548.53;251874;1134;114747;-74
2021/01/07 13:51:28;;;;;;;28.17;17.32;;;;;;;3.39;66.91;98561.37;251889;1135;115151;-74
2021/01/07 13:56:31;;;;;;;31.20;18.98;;;;;;;3.39;67.19;98565.78;252235;1132;114856;-74
2021/01/07 14:01:33;;;;;;;28.53;17.97;;;;;;;3.44;67.09;98576.98;252118;1141;115369;-75
2021/01/07 14:06:36;;;;;;;25.55;15.50;;;;;;;3.49;67.64;98586.38;252229;1133;114932;-74
2021/01/07 14:11:40;;;;;;;31.30;17.97;;;;;;;3.52;68.25;98581.00;252243;1132;114814;-75
2021/01/07 14:16:47;;;;;;;30.87;18.23;;;;;;;3.53;67.90;98580.09;252064;1135;114319;-74
2021/01/07 14:21:49;;;;;;;32.60;19.27;;;;;;;3.53;68.03;98582.73;252220;1140;114786;-74
2021/01/07 14:27:06;;;;;;;32.90;19.23;;;;;;;3.47;67.36;98585.61;252218;1134;114867;-73
2021/01/07 14:32:09;;;;;;;34.27;20.08;;;;;;;3.43;67.82;98591.91;252139;1134;114717;-74
2021/01/07 14:37:16;;;;;;;29.43;18.10;;;;;;;3.38;67.65;98596.48;252182;1134;114646;-74
2021/01/07 14:42:20;;;;;;;33.80;19.20;;;;;;;3.28;67.90;98595.14;252305;1132;114814;-74
2021/01/07 14:47:27;;;;;;;35.48;19.40;;;;;;;3.27;68.33;98601.33;252186;1132;115113;-74
2021/01/07 14:52:36;;;;;;;31.17;18.30;;;;;;;3.30;68.34;98601.20;252142;1134;115595;-73
2021/01/07 14:58:06;;;;;;;32.17;18.07;;;;;;;3.29;67.85;98597.73;252244;1135;115356;-74
2021/01/07 15:03:24;;;;;;;32.17;18.00;;;;;;;3.30;67.92;98595.95;252118;1134;114836;-73
2021/01/07 15:08:33;;;;;;;26.82;16.30;;;;;;;3.24;68.40;98601.45;252207;1132;114885;-73
2021/01/07 15:13:38;;;;;;;33.33;19.17;;;;;;;3.22;68.58;98611.16;252140;1135;114737;-71
2021/01/07 15:19:02;;;;;;;27.87;17.50;;;;;;;3.21;68.57;98610.30;252109;1132;114668;-72
2021/01/07 15:24:06;;;;;;;28.92;17.32;;;;;;;3.21;67.83;98617.34;251818;1134;114721;-71
2021/01/07 15:29:09;;;;;;;30.55;18.07;;;;;;;3.29;68.53;98620.52;252221;1132;114849;-76
2021/01/07 15:34:49;;;;;;;29.13;17.30;;;;;;;3.35;68.27;98616.80;252176;1135;114536;-73
2021/01/07 15:39:59;;;;;;;30.47;18.40;;;;;;;3.36;68.42;98618.50;252360;1135;114986;-73
2021/01/07 15:45:39;;;;;;;30.93;17.47;;;;;;;3.38;68.43;98616.67;252037;1135;114289;-72
2021/01/07 15:50:56;;;;;;;29.45;16.87;;;;;;;3.38;68.46;98620.16;252203;1135;114343;-72
2021/01/07 15:56:07;;;;;;;28.27;16.00;;;;;;;3.33;67.56;98619.50;252230;1132;114738;-72
2021/01/07 16:01:23;;;;;;;31.65;17.30;;;;;;;3.30;68.23;98633.62;252219;1135;114815;-72
2021/01/07 16:06:40;;;;;;;29.33;16.50;;;;;;;3.27;68.28;98638.14;252177;1134;115482;-73
2021/01/07 16:11:44;;;;;;;31.77;18.00;;;;;;;3.23;68.11;98641.81;251983;1132;114670;-73
2021/01/07 16:16:47;;;;;;;29.42;16.97;;;;;;;3.23;68.35;98637.41;252240;1132;115640;-74
2021/01/07 16:22:08;;;;;;;32.87;18.50;;;;;;;3.21;68.33;98635.74;251382;1135;114922;-74
2021/01/07 16:27:23;;;;;;;34.92;18.90;;;;;;;3.23;68.32;98642.66;252080;1135;114802;-75
2021/01/07 16:32:26;;;;;;;31.57;17.83;;;;;;;3.28;68.79;98639.84;252062;1132;115008;-74
2021/01/07 16:37:30;;;;;;;37.03;19.20;;;;;;;3.28;68.63;98635.44;252233;1132;114939;-75
2021/01/07 16:42:33;;;;;;;32.38;19.05;;;;;;;3.30;68.47;98638.02;252196;1132;114644;-75
2021/01/07 16:47:36;;;;;;;33.40;19.23;;;;;;;3.30;68.29;98636.25;252224;1133;115056;-75
2021/01/07 16:52:39;;;;;;;32.53;19.87;;;;;;;3.34;68.88;98638.76;252280;1133;114648;-75
2021/01/07 16:57:47;;;;;;;27.67;16.60;;;;;;;3.38;68.59;98635.94;252259;1134;114852;-74
2021/01/07 17:02:50;;;;;;;30.30;17.83;;;;;;;3.38;68.71;98635.94;252282;1132;114499;-75
2021/01/07 17:07:52;;;;;;;30.60;18.48;;;;;;;3.38;68.25;98630.67;252358;1132;114588;-74
2021/01/07 17:12:55;;;;;;;32.40;18.17;;;;;;;3.37;67.88;98618.45;252368;1132;115325;-74
2021/01/07 17:17:58;;;;;;;33.37;19.90;;;;;;;3.40;68.32;98626.22;252193;1135;114962;-74
2021/01/07 17:23:04;;;;;;;31.63;18.87;;;;;;;3.43;68.08;98628.73;252295;1134;115373;-74
2021/01/07 17:28:07;;;;;;;31.57;18.70;;;;;;;3.40;68.60;98633.27;252144;1133;114741;-74
2021/01/07 17:33:09;;;;;;;29.43;16.60;;;;;;;3.38;68.43;98635.09;252229;1134;114723;-73
2021/01/07 17:38:11;;;;;;;27.30;16.67;;;;;;;3.34;68.40;98634.35;252400;1132;114856;-74
2021/01/07 17:43:13;;;;;;;33.10;19.70;;;;;;;3.28;68.91;98638.06;252191;1135;114629;-74
2021/01/07 17:48:16;;;;;;;34.90;19.63;;;;;;;3.27;68.58;98638.99;252251;1132;114730;-74
2021/01/07 17:53:18;;;;;;;31.37;17.97;;;;;;;3.28;68.38;98639.84;251797;1132;114887;-74
2021/01/07 17:58:21;;;;;;;34.73;20.03;;;;;;;3.33;69.25;98637.91;252149;1134;114900;-75
2021/01/07 18:03:55;;;;;;;35.80;19.93;;;;;;;3.37;68.14;98639.49;251947;1132;114818;-77
2021/01/07 18:08:58;;;;;;;30.92;18.82;;;;;;;3.37;68.39;98644.75;251947;1132;114352;-76
2021/01/07 18:14:21;;;;;;;32.98;18.90;;;;;;;3.35;68.90;98643.94;251912;1134;114734;-76
2021/01/07 18:19:24;;;;;;;31.62;18.30;;;;;;;3.34;68.28;98650.13;251759;1132;114840;-77
2021/01/07 18:24:27;;;;;;;29.57;17.77;;;;;;;3.34;68.66;98655.39;252068;1134;114854;-77
2021/01/07 18:29:30;;;;;;;32.93;18.70;;;;;;;3.33;67.97;98656.31;250290;1132;115319;-77
2021/01/07 18:34:33;;;;;;;33.43;19.00;;;;;;;3.36;68.45;98658.80;248603;1132;115002;-76
2021/01/07 18:39:35;;;;;;;37.07;18.17;;;;;;;3.40;68.46;98652.53;252035;1132;115184;-76
2021/01/07 18:44:38;;;;;;;29.77;17.15;;;;;;;3.44;68.36;98662.00;252081;1132;114919;-76
2021/01/07 18:49:40;;;;;;;28.60;16.90;;;;;;;3.47;68.67;98663.66;251850;1135;114272;-76
2021/01/07 18:54:43;;;;;;;25.50;16.03;;;;;;;3.47;68.26;98664.52;251983;1132;114973;-76
2021/01/07 18:59:45;;;;;;;28.60;16.48;;;;;;;3.45;68.27;98658.45;251884;1132;114890;-76
2021/01/07 19:04:48;;;;;;;22.97;14.50;;;;;;;3.45;68.28;98662.86;251756;1134;114441;-76
2021/01/07 19:09:50;;;;;;;30.27;16.27;;;;;;;3.41;68.20;98667.38;251902;1132;114606;-76
2021/01/07 19:14:58;;;;;;;27.82;16.25;;;;;;;3.38;68.06;98669.27;252035;1134;114804;-76
2021/01/07 19:20:00;;;;;;;27.63;15.20;;;;;;;3.38;67.77;98672.76;251836;1135;114900;-76
2021/01/07 19:25:05;;;;;;;30.50;17.20;;;;;;;3.39;68.19;98677.09;252121;1132;114851;-76
2021/01/07 19:30:09;;;;;;;26.57;15.77;;;;;;;3.43;68.29;98678.71;252043;1132;114682;-75
2021/01/07 19:35:13;;;;;;;26.80;15.93;;;;;;;3.43;68.41;98683.97;251738;1132;115483;-77
2021/01/07 19:40:16;;;;;;;25.73;15.70;;;;;;;3.40;67.58;98688.50;251866;1134;115356;-77
2021/01/07 19:45:18;;;;;;;29.10;16.73;;;;;;;3.35;68.45;98688.66;250382;1132;115109;-75
2021/01/07 19:50:22;;;;;;;27.63;15.63;;;;;;;3.35;68.41;98688.66;250246;1135;114884;-74
2021/01/07 19:55:25;;;;;;;30.70;18.53;;;;;;;3.30;68.14;98695.88;251896;1132;114753;-78
2021/01/07 20:00:27;;;;;;;36.00;19.77;;;;;;;3.28;67.82;98695.06;251767;1132;114763;-74
2021/01/07 20:05:30;;;;;;;40.23;23.13;;;;;;;3.34;68.19;98700.09;251760;1132;114918;-76
2021/01/07 20:10:35;;;;;;;35.35;19.30;;;;;;;3.36;68.26;98700.88;251696;1134;115480;-77
2021/01/07 20:15:38;;;;;;;43.77;23.43;;;;;;;3.27;67.80;98707.36;251935;1134;114883;-76
2021/01/07 20:20:42;;;;;;;49.30;24.63;;;;;;;3.25;67.77;98696.03;251769;1132;114535;-74
2021/01/07 20:25:45;;;;;;;48.53;24.83;;;;;;;3.29;68.60;98708.17;251767;1133;114958;-74
2021/01/07 20:30:47;;;;;;;44.15;23.60;;;;;;;3.33;68.15;98703.66;251652;1132;114798;-74
2021/01/07 20:35:49;;;;;;;44.03;24.00;;;;;;;3.34;67.99;98702.73;252056;1132;114727;-74
2021/01/07 20:40:52;;;;;;;51.10;25.10;;;;;;;3.34;68.28;98704.50;252026;1132;114749;-75
2021/01/07 20:45:54;;;;;;;44.47;23.87;;;;;;;3.32;68.19;98707.17;252018;1134;114724;-77
2021/01/07 20:50:57;;;;;;;42.33;22.37;;;;;;;3.35;68.23;98700.95;251001;1135;114971;-77
2021/01/07 20:56:00;;;;;;;40.52;22.45;;;;;;;3.32;68.20;98704.55;251693;1132;115212;-75
2021/01/07 21:01:02;;;;;;;42.87;23.73;;;;;;;3.36;68.72;98716.66;251752;1135;114777;-75
2021/01/07 21:06:05;;;;;;;41.63;21.07;;;;;;;3.36;67.95;98715.80;252061;1132;115207;-75
2021/01/07 21:11:10;;;;;;;39.20;21.13;;;;;;;3.33;67.42;98714.17;251882;1134;114707;-76
2021/01/07 21:16:13;;;;;;;37.20;20.40;;;;;;;3.30;67.28;98714.28;251933;1132;114728;-74
2021/01/07 21:21:15;;;;;;;38.58;20.43;;;;;;;3.25;67.58;98709.18;252115;1132;115022;-74
2021/01/07 21:26:18;;;;;;;36.90;19.63;;;;;;;3.28;67.42;98721.36;251945;1135;114935;-74
2021/01/07 21:31:22;;;;;;;33.63;17.57;;;;;;;3.31;67.21;98715.99;250354;1133;115457;-73
2021/01/07 21:36:49;;;;;;;27.30;14.80;;;;;;;3.33;67.35;98706.28;249337;1134;115059;-73
2021/01/07 21:42:00;;;;;;;26.70;13.97;;;;;;;3.36;66.82;98716.66;251140;1135;114896;-73
2021/01/07 21:47:07;;;;;;;22.43;12.40;;;;;;;3.35;66.67;98712.33;249417;1133;115559;-75
2021/01/07 21:52:10;;;;;;;22.23;12.57;;;;;;;3.31;67.21;98723.88;251818;1133;114969;-74
2021/01/07 21:57:12;;;;;;;25.90;11.63;;;;;;;3.34;66.75;98713.25;250108;1134;114923;-72
2021/01/07 22:02:19;;;;;;;23.00;11.20;;;;;;;3.34;66.74;98713.25;251940;1132;114677;-72
2021/01/07 22:07:22;;;;;;;25.60;12.78;;;;;;;3.32;66.32;98718.55;251871;1132;115457;-72
2021/01/07 22:12:25;;;;;;;21.60;11.12;;;;;;;3.30;66.21;98714.28;250077;1134;115080;-72
2021/01/07 22:17:27;;;;;;;23.23;12.17;;;;;;;3.28;66.14;98722.22;251693;1133;114632;-72
2021/01/07 22:22:30;;;;;;;20.05;11.90;;;;;;;3.29;66.26;98715.17;251769;1133;114879;-72
2021/01/07 22:27:33;;;;;;;20.70;11.07;;;;;;;3.26;66.21;98716.17;251619;1132;114783;-72
2021/01/07 22:32:36;;;;;;;20.53;12.03;;;;;;;3.25;66.48;98717.06;251888;1134;115147;-72
2021/01/07 22:37:39;;;;;;;22.67;12.17;;;;;;;3.29;66.54;98710.80;248101;1133;115212;-72
2021/01/07 22:42:44;;;;;;;24.83;12.97;;;;;;;3.37;66.63;98717.55;251459;1133;115110;-73
2021/01/07 22:47:48;;;;;;;24.40;12.30;;;;;;;3.41;66.06;98727.87;251756;1132;114975;-73
2021/01/07 22:52:50;;;;;;;25.03;11.77;;;;;;;3.43;66.26;98731.32;251772;1132;114739;-73
2021/01/07 22:57:59;;;;;;;26.20;12.80;;;;;;;3.45;66.02;98724.20;248800;1134;114641;-74
2021/01/07 23:03:02;;;;;;;26.00;12.82;;;;;;;3.41;66.14;98725.24;251942;1134;114755;-72
2021/01/07 23:08:05;;;;;;;33.20;14.07;;;;;;;3.41;65.54;98725.24;251639;1133;114819;-72
2021/01/07 23:13:07;;;;;;;29.42;14.18;;;;;;;3.40;65.89;98727.95;251582;1134;114758;-72